createdAt,value
2022-10-05T00:00:36.774Z,11.30
2022-10-05T00:03:03.023Z,11.26
2022-10-05T00:05:29.332Z,11.27
2022-10-05T00:07:55.763Z,11.28
2022-10-05T00:10:22.023Z,11.26
2022-10-05T00:12:48.264Z,11.26
2022-10-05T00:15:14.811Z,11.24
2022-10-05T00:17:41.067Z,11.23
2022-10-05T00:20:07.311Z,11.22
2022-10-05T00:22:33.604Z,11.21
2022-10-05T00:24:59.884Z,11.20
2022-10-05T00:27:26.144Z,11.17
2022-10-05T00:29:52.546Z,11.15
2022-10-05T00:32:18.799Z,11.11
2022-10-05T00:34:45.047Z,11.13
2022-10-05T00:37:11.305Z,11.11
2022-10-05T00:39:37.565Z,10.99
2022-10-05T00:42:03.815Z,11.02
2022-10-05T00:44:30.070Z,11.07
2022-10-05T00:46:56.324Z,11.01
2022-10-05T00:49:22.577Z,11.01
2022-10-05T00:51:48.831Z,11.02
2022-10-05T00:54:18.374Z,10.99
2022-10-05T00:56:45.179Z,11.02
2022-10-05T00:59:11.622Z,10.95
2022-10-05T01:01:37.904Z,10.73
2022-10-05T01:04:04.199Z,10.76
2022-10-05T01:06:30.442Z,10.72
2022-10-05T01:08:56.707Z,10.75
2022-10-05T01:11:22.983Z,10.72
2022-10-05T01:13:49.229Z,10.70
2022-10-05T01:16:15.734Z,10.69
2022-10-05T01:18:42.017Z,10.57
2022-10-05T01:21:08.283Z,10.55
2022-10-05T01:23:34.555Z,10.50
2022-10-05T01:26:00.805Z,10.44
2022-10-05T01:28:27.086Z,10.52
2022-10-05T01:30:53.443Z,10.55
2022-10-05T01:33:19.726Z,10.52
2022-10-05T01:35:45.986Z,10.56
2022-10-05T01:38:12.240Z,10.53
2022-10-05T01:40:38.508Z,10.36
2022-10-05T01:43:04.760Z,10.39
2022-10-05T01:45:31.103Z,10.47
2022-10-05T01:47:57.445Z,10.44
2022-10-05T01:50:23.778Z,10.44
2022-10-05T01:52:50.041Z,10.45
2022-10-05T01:55:16.291Z,10.52
2022-10-05T01:57:42.574Z,10.54
2022-10-05T02:00:08.877Z,10.50
2022-10-05T02:02:35.186Z,10.49
2022-10-05T02:05:02.861Z,10.47
2022-10-05T02:07:29.418Z,10.53
2022-10-05T02:09:55.708Z,10.50
2022-10-05T02:12:21.968Z,10.51
2022-10-05T02:14:48.233Z,10.56
2022-10-05T02:17:14.480Z,10.54
2022-10-05T02:19:40.756Z,10.50
2022-10-05T02:22:07.001Z,10.47
2022-10-05T02:24:33.318Z,10.37
2022-10-05T02:26:59.576Z,10.36
2022-10-05T02:29:25.849Z,10.32
2022-10-05T02:31:52.218Z,10.28
2022-10-05T02:34:18.515Z,10.14
2022-10-05T02:36:45.707Z,9.68
2022-10-05T02:39:12.168Z,9.58
2022-10-05T02:41:38.421Z,9.83
2022-10-05T02:44:04.675Z,9.87
2022-10-05T02:46:30.918Z,9.99
2022-10-05T02:48:57.199Z,10.04
2022-10-05T02:51:23.464Z,10.10
2022-10-05T02:53:49.716Z,10.08
2022-10-05T02:56:15.982Z,10.09
2022-10-05T02:58:42.288Z,10.06
2022-10-05T03:01:08.633Z,10.07
2022-10-05T03:03:34.919Z,10.00
2022-10-05T03:06:01.176Z,9.99
2022-10-05T03:08:27.427Z,10.04
2022-10-05T03:10:53.686Z,10.02
2022-10-05T03:13:19.940Z,9.96
2022-10-05T03:15:46.273Z,10.00
2022-10-05T03:18:12.570Z,10.02
2022-10-05T03:20:38.828Z,10.03
2022-10-05T03:23:05.109Z,10.07
2022-10-05T03:25:31.354Z,10.06
2022-10-05T03:27:57.719Z,10.06
2022-10-05T03:30:27.082Z,10.05
2022-10-05T03:32:53.336Z,10.01
2022-10-05T03:35:19.605Z,10.00
2022-10-05T03:37:45.845Z,9.99
2022-10-05T03:40:12.116Z,10.08
2022-10-05T03:42:38.373Z,10.08
2022-10-05T03:45:04.677Z,10.10
2022-10-05T03:47:31.024Z,9.94
2022-10-05T03:49:57.343Z,9.96
2022-10-05T03:52:23.634Z,9.93
2022-10-05T03:54:50.069Z,9.81
2022-10-05T03:57:16.327Z,9.71
2022-10-05T03:59:42.587Z,9.59
2022-10-05T04:02:08.882Z,9.66
2022-10-05T04:04:35.150Z,9.59
2022-10-05T04:07:01.398Z,9.60
2022-10-05T04:09:27.642Z,9.50
2022-10-05T04:11:53.923Z,9.57
2022-10-05T04:14:20.172Z,9.52
2022-10-05T04:16:46.657Z,9.40
2022-10-05T04:19:13.123Z,9.36
2022-10-05T04:21:39.387Z,9.36
2022-10-05T04:24:05.643Z,9.40
2022-10-05T04:26:31.900Z,9.34
2022-10-05T04:28:58.169Z,9.15
2022-10-05T04:31:24.467Z,9.32
2022-10-05T04:33:50.850Z,9.12
2022-10-05T04:36:17.087Z,9.22
2022-10-05T04:38:43.345Z,9.30
2022-10-05T04:41:09.588Z,9.18
2022-10-05T04:43:35.843Z,9.24
2022-10-05T04:46:02.112Z,8.90
2022-10-05T04:48:28.387Z,9.11
2022-10-05T04:50:54.674Z,9.10
2022-10-05T04:53:20.955Z,9.15
2022-10-05T04:55:47.255Z,9.02
2022-10-05T04:58:13.614Z,9.03
2022-10-05T05:00:39.913Z,9.08
2022-10-05T05:03:06.204Z,9.08
2022-10-05T05:05:32.452Z,8.83
2022-10-05T05:07:58.722Z,8.99
2022-10-05T05:10:24.966Z,8.94
2022-10-05T05:12:51.244Z,8.96
2022-10-05T05:15:17.528Z,8.98
2022-10-05T05:17:43.810Z,8.98
2022-10-05T05:20:10.075Z,8.98
2022-10-05T05:22:36.396Z,8.70
2022-10-05T05:25:04.398Z,8.84
2022-10-05T05:27:30.668Z,8.86
2022-10-05T05:29:56.911Z,8.89
2022-10-05T05:32:23.192Z,8.92
2022-10-05T05:34:49.448Z,8.90
2022-10-05T05:37:17.237Z,8.94
2022-10-05T05:39:43.512Z,8.93
2022-10-05T05:42:09.782Z,8.98
2022-10-05T05:44:38.818Z,8.89
2022-10-05T05:47:05.721Z,8.85
2022-10-05T05:49:32.060Z,8.92
2022-10-05T05:51:58.307Z,8.98
2022-10-05T05:54:24.598Z,9.04
2022-10-05T05:56:50.839Z,9.06
2022-10-05T05:59:17.100Z,9.12
2022-10-05T06:01:44.658Z,9.13
2022-10-05T06:04:11.322Z,9.23
2022-10-05T06:06:37.577Z,9.27
2022-10-05T06:09:03.826Z,9.30
2022-10-05T06:11:30.104Z,9.32
2022-10-05T06:13:56.362Z,9.38
2022-10-05T06:16:23.175Z,9.39
2022-10-05T06:18:49.498Z,9.45
2022-10-05T06:21:15.760Z,9.44
2022-10-05T06:23:42.024Z,9.52
2022-10-05T06:26:10.878Z,9.60
2022-10-05T06:28:37.714Z,9.66
2022-10-05T06:31:04.365Z,9.74
2022-10-05T06:33:30.628Z,9.84
2022-10-05T06:35:56.871Z,9.93
2022-10-05T06:38:23.110Z,9.94
2022-10-05T06:40:49.352Z,10.02
2022-10-05T06:43:15.638Z,10.07
2022-10-05T06:45:41.962Z,10.20
2022-10-05T06:48:08.363Z,10.30
2022-10-05T06:50:34.610Z,10.40
2022-10-05T06:53:00.883Z,10.55
2022-10-05T06:55:27.139Z,10.67
2022-10-05T06:57:53.398Z,10.81
2022-10-05T07:00:20.015Z,10.90
2022-10-05T07:02:46.335Z,10.93
2022-10-05T07:05:12.587Z,11.06
2022-10-05T07:07:38.867Z,11.16
2022-10-05T07:10:05.137Z,11.26
2022-10-05T07:12:31.382Z,11.32
2022-10-05T07:14:57.702Z,11.42
2022-10-05T07:17:23.974Z,11.58
2022-10-05T07:19:52.348Z,11.73
2022-10-05T07:22:18.864Z,12.02
2022-10-05T07:24:45.121Z,12.07
2022-10-05T07:27:11.378Z,12.11
2022-10-05T07:29:37.620Z,12.30
2022-10-05T07:32:04.192Z,12.39
2022-10-05T07:34:30.447Z,12.64
2022-10-05T07:37:15.033Z,12.63
2022-10-05T07:39:59.554Z,12.84
2022-10-05T07:42:26.640Z,12.87
2022-10-05T07:44:52.896Z,13.06
2022-10-05T07:47:19.164Z,13.28
2022-10-05T07:49:45.462Z,13.31
2022-10-05T07:52:11.942Z,13.27
2022-10-05T07:54:38.230Z,13.62
2022-10-05T07:57:04.518Z,13.65
2022-10-05T07:59:31.003Z,13.82
2022-10-05T08:01:57.303Z,13.79
2022-10-05T08:04:23.585Z,13.95
2022-10-05T08:06:50.395Z,14.11
2022-10-05T08:09:16.849Z,14.09
2022-10-05T08:11:43.347Z,14.14
2022-10-05T08:14:10.408Z,14.26
2022-10-05T08:16:36.818Z,14.24
2022-10-05T08:19:03.091Z,14.29
2022-10-05T08:21:29.339Z,14.39
2022-10-05T08:23:56.521Z,14.52
2022-10-05T08:26:22.830Z,14.50
2022-10-05T08:28:50.962Z,14.56
2022-10-05T08:31:17.245Z,14.57
2022-10-05T08:33:43.599Z,14.75
2022-10-05T08:36:10.591Z,14.85
2022-10-05T08:38:36.835Z,14.81
2022-10-05T08:41:03.114Z,15.02
2022-10-05T08:43:34.374Z,15.12
2022-10-05T08:46:01.618Z,15.13
2022-10-05T08:48:28.078Z,15.42
2022-10-05T08:50:54.337Z,15.36
2022-10-05T08:53:20.586Z,15.27
2022-10-05T08:55:46.866Z,15.47
2022-10-05T08:58:13.126Z,15.49
2022-10-05T09:00:39.687Z,15.42
2022-10-05T09:03:06.172Z,15.46
2022-10-05T09:05:32.430Z,15.38
2022-10-05T09:07:58.684Z,15.47
2022-10-05T09:10:24.996Z,15.65
2022-10-05T09:12:51.254Z,15.89
2022-10-05T09:15:26.304Z,16.13
2022-10-05T09:17:53.107Z,16.03
2022-10-05T09:20:19.914Z,16.30
2022-10-05T09:22:46.273Z,16.13
2022-10-05T09:25:12.616Z,16.24
2022-10-05T09:27:38.884Z,16.32
2022-10-05T09:30:05.355Z,16.31
2022-10-05T09:32:31.986Z,16.60
2022-10-05T09:34:58.273Z,16.76
2022-10-05T09:37:26.405Z,16.62
2022-10-05T09:39:54.260Z,16.83
2022-10-05T09:42:22.205Z,17.01
2022-10-05T09:44:48.487Z,17.15
2022-10-05T09:47:14.733Z,17.17
2022-10-05T09:49:40.991Z,16.94
2022-10-05T09:52:07.443Z,16.99
2022-10-05T09:54:33.710Z,16.97
2022-10-05T09:57:00.133Z,17.17
2022-10-05T09:59:27.221Z,17.19
2022-10-05T10:01:53.547Z,17.31
2022-10-05T10:04:20.318Z,17.21
2022-10-05T10:06:46.591Z,17.39
2022-10-05T10:09:12.853Z,17.28
2022-10-05T10:11:39.165Z,17.28
2022-10-05T10:14:05.452Z,17.33
2022-10-05T10:16:31.756Z,17.39
2022-10-05T10:18:58.008Z,17.60
2022-10-05T10:21:24.297Z,17.74
2022-10-05T10:23:50.591Z,17.81
2022-10-05T10:26:16.887Z,18.07
2022-10-05T10:28:43.142Z,17.85
2022-10-05T10:31:09.460Z,17.95
2022-10-05T10:33:35.744Z,17.88
2022-10-05T10:36:06.005Z,17.75
2022-10-05T10:38:33.395Z,17.67
2022-10-05T10:40:59.690Z,17.72
2022-10-05T10:43:26.451Z,18.03
2022-10-05T10:45:54.198Z,18.13
2022-10-05T10:48:20.459Z,18.45
2022-10-05T10:50:46.719Z,18.60
2022-10-05T10:53:12.996Z,18.67
2022-10-05T10:55:39.256Z,18.49
2022-10-05T10:58:05.539Z,18.64
2022-10-05T11:00:31.786Z,18.62
2022-10-05T11:03:01.454Z,18.83
2022-10-05T11:05:27.872Z,18.87
2022-10-05T11:07:54.177Z,19.16
2022-10-05T11:10:20.425Z,19.23
2022-10-05T11:12:47.547Z,19.23
2022-10-05T11:15:13.813Z,19.29
2022-10-05T11:17:40.058Z,19.18
2022-10-05T11:20:06.361Z,19.14
2022-10-05T11:22:32.639Z,19.29
2022-10-05T11:24:58.947Z,19.33
2022-10-05T11:27:25.204Z,19.53
2022-10-05T11:29:51.464Z,19.74
2022-10-05T11:32:17.718Z,19.78
2022-10-05T11:34:44.018Z,19.90
2022-10-05T11:37:10.273Z,20.03
2022-10-05T11:39:39.788Z,20.04
2022-10-05T11:42:06.190Z,19.93
2022-10-05T11:44:32.448Z,20.01
2022-10-05T11:46:58.712Z,20.02
2022-10-05T11:49:24.977Z,19.95
2022-10-05T11:51:51.601Z,19.77
2022-10-05T11:54:18.163Z,19.72
2022-10-05T11:56:44.427Z,19.65
2022-10-05T11:59:10.683Z,19.60
2022-10-05T12:01:36.968Z,19.57
2022-10-05T12:04:03.345Z,19.55
2022-10-05T12:06:29.661Z,19.36
2022-10-05T12:08:56.031Z,19.47
2022-10-05T12:11:22.290Z,19.70
2022-10-05T12:13:48.574Z,19.79
2022-10-05T12:16:14.854Z,19.69
2022-10-05T12:18:41.256Z,19.83
2022-10-05T12:21:07.517Z,19.80
2022-10-05T12:23:34.539Z,19.73
2022-10-05T12:26:00.747Z,19.77
2022-10-05T12:28:27.140Z,19.84
2022-10-05T12:30:53.530Z,19.83
2022-10-05T12:33:20.122Z,19.83
2022-10-05T12:35:48.997Z,19.90
2022-10-05T12:38:15.624Z,19.70
2022-10-05T12:40:41.977Z,19.92
2022-10-05T12:43:08.420Z,19.98
2022-10-05T12:45:34.716Z,19.87
2022-10-05T12:48:02.138Z,19.83
2022-10-05T12:50:28.745Z,19.98
2022-10-05T12:52:55.918Z,19.97
2022-10-05T12:55:25.908Z,19.91
2022-10-05T12:57:52.164Z,19.98
2022-10-05T13:00:22.685Z,19.95
2022-10-05T13:02:50.843Z,19.94
2022-10-05T13:05:17.141Z,20.13
2022-10-05T13:07:43.395Z,20.20
2022-10-05T13:10:09.756Z,20.38
2022-10-05T13:12:36.108Z,20.21
2022-10-05T13:15:02.484Z,20.16
2022-10-05T13:17:28.750Z,20.23
2022-10-05T13:19:54.999Z,20.09
2022-10-05T13:22:22.542Z,20.14
2022-10-05T13:24:48.794Z,20.28
2022-10-05T13:27:15.111Z,20.10
2022-10-05T13:29:41.362Z,20.18
2022-10-05T13:32:07.659Z,20.08
2022-10-05T13:34:47.039Z,20.14
2022-10-05T13:37:13.382Z,20.19
2022-10-05T13:39:40.716Z,20.34
2022-10-05T13:42:07.025Z,20.26
2022-10-05T13:44:33.287Z,20.33
2022-10-05T13:46:59.599Z,20.28
2022-10-05T13:49:29.440Z,20.30
2022-10-05T13:51:55.739Z,20.37
2022-10-05T13:54:22.014Z,20.27
2022-10-05T13:56:48.278Z,20.29
2022-10-05T13:59:14.561Z,20.39
2022-10-05T14:01:43.709Z,20.35
2022-10-05T14:04:09.967Z,20.20
2022-10-05T14:06:36.232Z,20.34
2022-10-05T14:09:02.528Z,20.27
2022-10-05T14:11:28.854Z,20.36
2022-10-05T14:13:55.127Z,20.40
2022-10-05T14:16:21.483Z,20.47
2022-10-05T14:18:47.822Z,20.48
2022-10-05T14:21:14.264Z,20.31
2022-10-05T14:23:40.747Z,20.32
2022-10-05T14:26:07.009Z,20.39
2022-10-05T14:28:33.344Z,20.28
2022-10-05T14:30:59.845Z,20.33
2022-10-05T14:33:26.111Z,20.36
2022-10-05T14:35:52.392Z,20.39
2022-10-05T14:38:18.642Z,20.35
2022-10-05T14:40:44.906Z,20.35
2022-10-05T14:43:11.195Z,20.26
2022-10-05T14:45:37.497Z,20.31
2022-10-05T14:48:05.209Z,20.33
2022-10-05T14:50:31.580Z,20.20
2022-10-05T14:52:58.067Z,20.29
2022-10-05T14:55:24.322Z,20.27
2022-10-05T14:57:50.594Z,20.16
2022-10-05T15:00:16.910Z,20.17
2022-10-05T15:02:45.038Z,20.23
2022-10-05T15:05:14.261Z,20.09
2022-10-05T15:07:40.534Z,20.05
2022-10-05T15:10:06.793Z,19.98
2022-10-05T15:12:33.134Z,19.91
2022-10-05T15:14:59.387Z,19.93
2022-10-05T15:17:26.973Z,19.80
2022-10-05T15:19:53.231Z,19.91
2022-10-05T15:22:19.486Z,19.87
2022-10-05T15:24:45.786Z,19.79
2022-10-05T15:27:12.128Z,19.74
2022-10-05T15:29:38.404Z,19.74
2022-10-05T15:32:04.693Z,19.65
2022-10-05T15:34:30.968Z,19.72
2022-10-05T15:36:57.237Z,19.68
2022-10-05T15:39:23.506Z,19.66
2022-10-05T15:41:49.799Z,19.49
2022-10-05T15:44:16.058Z,19.52
2022-10-05T15:46:42.313Z,19.55
2022-10-05T15:49:08.675Z,19.53
2022-10-05T15:51:34.978Z,19.45
2022-10-05T15:54:19.921Z,19.39
2022-10-05T15:56:46.171Z,19.44
2022-10-05T15:59:17.640Z,19.45
2022-10-05T16:01:44.184Z,19.31
2022-10-05T16:04:10.490Z,19.26
2022-10-05T16:06:55.325Z,19.26
2022-10-05T16:09:21.591Z,19.17
2022-10-05T16:11:47.873Z,19.19
2022-10-05T16:14:14.143Z,19.14
2022-10-05T16:16:41.911Z,19.11
2022-10-05T16:19:08.228Z,19.06
2022-10-05T16:21:34.489Z,19.05
2022-10-05T16:24:04.992Z,18.98
2022-10-05T16:26:32.620Z,18.95
2022-10-05T16:28:58.923Z,18.91
2022-10-05T16:31:25.226Z,18.86
2022-10-05T16:33:54.348Z,18.78
2022-10-05T16:36:22.669Z,18.75
2022-10-05T16:38:48.951Z,18.66
2022-10-05T16:41:15.215Z,18.57
2022-10-05T16:43:41.630Z,18.49
2022-10-05T16:46:10.236Z,18.49
2022-10-05T16:48:36.761Z,18.45
2022-10-05T16:51:03.024Z,18.45
2022-10-05T16:53:29.391Z,18.40
2022-10-05T16:55:55.670Z,18.39
2022-10-05T16:58:22.202Z,18.31
2022-10-05T17:00:51.542Z,18.24
2022-10-05T17:03:17.801Z,18.21
2022-10-05T17:05:44.290Z,18.02
2022-10-05T17:08:10.568Z,17.93
2022-10-05T17:10:37.117Z,17.91
2022-10-05T17:13:03.418Z,17.90
2022-10-05T17:15:29.831Z,17.86
2022-10-05T17:17:57.592Z,17.81
2022-10-05T17:20:23.866Z,17.75
2022-10-05T17:22:51.007Z,17.68
2022-10-05T17:25:22.391Z,17.70
2022-10-05T17:27:50.801Z,17.67
2022-10-05T17:30:17.441Z,17.54
2022-10-05T17:32:43.710Z,17.39
2022-10-05T17:35:10.713Z,17.42
2022-10-05T17:37:38.943Z,17.43
2022-10-05T17:40:05.204Z,17.43
2022-10-05T17:42:31.742Z,17.41
2022-10-05T17:44:58.310Z,17.39
2022-10-05T17:47:24.600Z,17.32
2022-10-05T17:50:10.817Z,17.31
2022-10-05T17:52:59.998Z,17.28
2022-10-05T17:55:28.486Z,17.23
2022-10-05T17:57:58.541Z,17.21
2022-10-05T18:00:25.034Z,17.11
2022-10-05T18:02:51.326Z,17.09
2022-10-05T18:05:17.606Z,17.10
2022-10-05T18:07:48.048Z,16.96
2022-10-05T18:10:17.249Z,16.88
2022-10-05T18:12:44.007Z,16.89
2022-10-05T18:15:10.269Z,16.85
2022-10-05T18:17:36.615Z,16.73
2022-10-05T18:20:02.896Z,16.69
2022-10-05T18:22:30.220Z,16.68
2022-10-05T18:25:03.449Z,16.55
2022-10-05T18:27:34.017Z,16.46
2022-10-05T18:30:03.020Z,16.28
2022-10-05T18:32:29.276Z,16.26
2022-10-05T18:34:58.648Z,16.20
2022-10-05T18:37:29.490Z,16.20
2022-10-05T18:39:55.840Z,16.31
2022-10-05T18:42:22.893Z,16.21
2022-10-05T18:44:49.079Z,16.13
2022-10-05T18:47:15.338Z,16.12
2022-10-05T18:49:42.222Z,15.91
2022-10-05T18:52:08.491Z,15.97
2022-10-05T18:54:34.821Z,16.01
2022-10-05T18:57:01.091Z,15.92
2022-10-05T18:59:27.354Z,16.05
2022-10-05T19:01:53.879Z,16.01
2022-10-05T19:04:22.353Z,15.96
2022-10-05T19:06:48.612Z,15.92
2022-10-05T19:09:14.902Z,15.81
2022-10-05T19:11:41.975Z,15.88
2022-10-05T19:14:08.166Z,15.87
2022-10-05T19:16:34.476Z,15.88
2022-10-05T19:19:00.756Z,15.44
2022-10-05T19:21:27.003Z,15.51
2022-10-05T19:23:53.307Z,15.56
2022-10-05T19:26:19.603Z,15.53
2022-10-05T19:28:45.906Z,15.30
2022-10-05T19:31:12.250Z,15.46
2022-10-05T19:33:38.791Z,15.25
2022-10-05T19:36:05.050Z,15.16
2022-10-05T19:38:31.397Z,14.81
2022-10-05T19:40:57.730Z,15.16
2022-10-05T19:43:24.094Z,15.23
2022-10-05T19:45:50.436Z,15.23
2022-10-05T19:48:16.684Z,15.18
2022-10-05T19:50:43.141Z,15.10
2022-10-05T19:53:10.235Z,15.06
2022-10-05T19:55:36.476Z,14.94
2022-10-05T19:58:02.806Z,15.02
2022-10-05T20:00:31.176Z,15.12
2022-10-05T20:02:57.853Z,15.06
2022-10-05T20:05:24.124Z,15.09
2022-10-05T20:07:50.527Z,14.98
2022-10-05T20:10:19.640Z,14.95
2022-10-05T20:12:45.933Z,14.92
2022-10-05T20:15:30.944Z,14.98
2022-10-05T20:18:15.790Z,14.98
2022-10-05T20:20:47.025Z,14.98
2022-10-05T20:23:15.549Z,15.00
2022-10-05T20:25:41.827Z,14.99
2022-10-05T20:28:08.160Z,14.95
2022-10-05T20:30:34.478Z,14.93
2022-10-05T20:33:01.539Z,14.88
2022-10-05T20:35:29.615Z,14.79
2022-10-05T20:37:59.982Z,14.83
2022-10-05T20:40:27.447Z,14.80
2022-10-05T20:42:53.693Z,14.87
2022-10-05T20:45:19.944Z,14.75
2022-10-05T20:47:47.232Z,14.51
2022-10-05T20:50:13.510Z,14.56
2022-10-05T20:52:39.786Z,14.38
2022-10-05T20:55:06.112Z,14.32
2022-10-05T20:57:32.440Z,14.33
2022-10-05T20:59:58.687Z,14.45
2022-10-05T21:02:24.951Z,14.25
2022-10-05T21:04:51.256Z,14.32
2022-10-05T21:07:17.553Z,14.30
2022-10-05T21:09:44.585Z,14.30
2022-10-05T21:12:10.798Z,14.18
2022-10-05T21:14:37.654Z,14.32
2022-10-05T21:17:03.904Z,14.22
2022-10-05T21:19:30.280Z,13.91
2022-10-05T21:21:59.302Z,14.12
2022-10-05T21:24:25.613Z,14.20
2022-10-05T21:26:51.879Z,14.08
2022-10-05T21:29:18.119Z,14.10
2022-10-05T21:31:44.486Z,13.98
2022-10-05T21:34:10.926Z,13.82
2022-10-05T21:36:37.183Z,13.97
2022-10-05T21:39:03.423Z,14.11
2022-10-05T21:41:29.754Z,14.11
2022-10-05T21:43:56.061Z,14.02
2022-10-05T21:46:22.326Z,14.11
2022-10-05T21:48:48.590Z,14.05
2022-10-05T21:51:16.518Z,14.10
2022-10-05T21:53:42.779Z,14.03
2022-10-05T21:56:09.057Z,14.12
2022-10-05T21:58:35.298Z,14.12
2022-10-05T22:01:01.616Z,14.19
2022-10-05T22:03:27.911Z,14.24
2022-10-05T22:05:54.365Z,14.13
2022-10-05T22:08:20.624Z,14.21
2022-10-05T22:10:47.036Z,14.11
2022-10-05T22:13:13.302Z,14.23
2022-10-05T22:15:40.508Z,14.21
2022-10-05T22:18:06.768Z,14.29
2022-10-05T22:20:34.359Z,14.16
2022-10-05T22:23:00.618Z,14.07
2022-10-05T22:25:26.874Z,14.04
2022-10-05T22:27:53.124Z,14.09
2022-10-05T22:30:19.377Z,14.09
2022-10-05T22:32:45.643Z,13.84
2022-10-05T22:35:12.053Z,14.02
2022-10-05T22:37:38.414Z,14.09
2022-10-05T22:40:04.663Z,14.22
2022-10-05T22:42:31.063Z,14.17
2022-10-05T22:44:58.514Z,14.00
2022-10-05T22:47:24.777Z,13.76
2022-10-05T22:49:51.050Z,13.78
2022-10-05T22:52:17.303Z,13.77
2022-10-05T22:54:43.582Z,13.78
2022-10-05T22:57:09.835Z,13.87
2022-10-05T22:59:36.087Z,13.68
2022-10-05T23:02:02.417Z,13.83
2022-10-05T23:04:28.812Z,13.62
2022-10-05T23:06:55.080Z,13.43
2022-10-05T23:09:21.326Z,13.60
2022-10-05T23:11:51.905Z,13.63
2022-10-05T23:14:18.899Z,13.45
2022-10-05T23:16:45.185Z,13.44
2022-10-05T23:19:12.278Z,13.51
2022-10-05T23:21:38.518Z,13.39
2022-10-05T23:24:04.768Z,13.53
2022-10-05T23:26:31.115Z,13.22
2022-10-05T23:28:57.388Z,13.10
2022-10-05T23:31:23.662Z,13.35
2022-10-05T23:33:49.923Z,13.32
2022-10-05T23:36:16.184Z,13.38
2022-10-05T23:38:42.458Z,13.39
2022-10-05T23:41:09.446Z,13.23
2022-10-05T23:43:35.690Z,13.41
2022-10-05T23:46:02.023Z,13.33
2022-10-05T23:48:28.630Z,13.47
2022-10-05T23:50:55.856Z,13.47
2022-10-05T23:53:22.119Z,13.50
2022-10-05T23:55:48.372Z,13.58
2022-10-05T23:58:14.646Z,13.66
